Yuma, Arizona
Current Conditions -  °F | °C
As of 6:57 AM on Monday 24 Nov 2014 (Local Time) from KNYL Reporting Station
Scattered Clouds Scattered Clouds  
Wind Chill: 55°   Ceiling: Unl
Heat Index: 55°   Visibility: 10mi
Dew Point: 10°   Wind: 9mph
Humidity: 17%   Direction: 350°N
Pressure: 30.2"   Gusts: NA
Location:  32.68°N, 114.62°W
Report Text: KNYL 241357Z 35008KT 10SM SCT250 13/M12 A3020 RMK AO2 SLP224 T01281122
Loading
Personal Weather Stations






























Interactive Weather Map New forecast layout! Learn more

10-Day Weather Forecast

Advertisements
Track Severe Weather on mobile